createdAt,value
2022-11-24T00:01:07.600Z,97687.03
2022-11-24T00:03:34.617Z,97680.06
2022-11-24T00:06:10.997Z,97694.09
2022-11-24T00:08:39.328Z,97701.06
2022-11-24T00:11:11.734Z,97696.72
2022-11-24T00:13:41.771Z,97700.22
2022-11-24T00:16:10.412Z,97703.75
2022-11-24T00:18:37.561Z,97698.50
2022-11-24T00:21:04.539Z,97695.84
2022-11-24T00:23:31.210Z,97712.50
2022-11-24T00:26:14.948Z,97711.63
2022-11-24T00:28:43.448Z,97713.38
2022-11-24T00:31:22.237Z,97717.75
2022-11-24T00:33:50.622Z,97717.75
2022-11-24T00:36:18.662Z,97724.75
2022-11-24T00:38:46.149Z,97719.47
2022-11-24T00:41:13.216Z,97719.50
2022-11-24T00:43:40.053Z,97727.38
2022-11-24T00:46:06.732Z,97726.50
2022-11-24T00:48:38.321Z,97733.50
2022-11-24T00:51:10.776Z,97733.50
2022-11-24T00:53:37.576Z,97734.38
2022-11-24T00:56:04.825Z,97730.84
2022-11-24T00:58:33.513Z,97745.75
2022-11-24T01:01:13.731Z,97743.97
2022-11-24T01:03:41.150Z,97744.84
2022-11-24T01:06:11.003Z,97749.22
2022-11-24T01:08:39.033Z,97761.53
2022-11-24T01:11:18.768Z,97765.03
2022-11-24T01:13:50.065Z,97762.38
2022-11-24T01:16:29.593Z,97767.63
2022-11-24T01:18:56.589Z,97764.13
2022-11-24T01:21:23.591Z,97776.38
2022-11-24T01:23:52.021Z,97779.00
2022-11-24T01:26:21.180Z,97777.25
2022-11-24T01:28:52.097Z,97778.13
2022-11-24T01:31:22.936Z,97780.75
2022-11-24T01:33:49.572Z,97784.28
2022-11-24T01:36:16.274Z,97777.28
2022-11-24T01:38:42.851Z,97781.66
2022-11-24T01:41:18.703Z,97786.03
2022-11-24T01:43:45.863Z,97779.88
2022-11-24T01:46:22.807Z,97786.91
2022-11-24T01:48:57.009Z,97793.03
2022-11-24T01:51:26.738Z,97790.41
2022-11-24T01:54:08.184Z,97796.53
2022-11-24T01:56:37.736Z,97793.88
2022-11-24T01:59:07.565Z,97799.13
2022-11-24T02:01:34.690Z,97800.91
2022-11-24T02:04:07.063Z,97795.66
2022-11-24T02:06:38.531Z,97803.53
2022-11-24T02:09:21.894Z,97810.53
2022-11-24T02:11:48.467Z,97810.53
2022-11-24T02:14:18.453Z,97816.66
2022-11-24T02:16:49.995Z,97811.41
2022-11-24T02:19:40.300Z,97821.91
2022-11-24T02:22:16.535Z,97814.88
2022-11-24T02:25:06.096Z,97811.38
2022-11-24T02:27:32.834Z,97821.91
2022-11-24T02:29:59.903Z,97807.00
2022-11-24T02:32:28.050Z,97815.75
2022-11-24T02:35:07.769Z,97801.72
2022-11-24T02:37:40.175Z,97806.13
2022-11-24T02:40:07.607Z,97808.75
2022-11-24T02:42:50.160Z,97814.00
2022-11-24T02:45:19.728Z,97818.38
2022-11-24T02:47:46.420Z,97819.25
2022-11-24T02:50:13.094Z,97826.28
2022-11-24T02:52:39.697Z,97826.25
2022-11-24T02:55:08.806Z,97825.41
2022-11-24T02:57:35.383Z,97821.88
2022-11-24T03:00:02.015Z,97822.75
2022-11-24T03:02:28.646Z,97823.66
2022-11-24T03:04:55.381Z,97822.78
2022-11-24T03:07:25.047Z,97820.13
2022-11-24T03:09:54.630Z,97821.00
2022-11-24T03:12:21.226Z,97827.13
2022-11-24T03:14:51.927Z,97826.25
2022-11-24T03:17:18.530Z,97817.50
2022-11-24T03:19:45.243Z,97825.38
2022-11-24T03:22:22.798Z,97821.00
2022-11-24T03:24:49.392Z,97833.22
2022-11-24T03:27:16.005Z,97835.84
2022-11-24T03:29:42.627Z,97848.13
2022-11-24T03:32:09.188Z,97847.25
2022-11-24T03:34:36.034Z,97845.47
2022-11-24T03:37:02.869Z,97848.06
2022-11-24T03:39:32.702Z,97855.97
2022-11-24T03:41:59.322Z,97845.44
2022-11-24T03:44:25.904Z,97844.59
2022-11-24T03:46:52.630Z,97848.94
2022-11-24T03:49:19.284Z,97858.59
2022-11-24T03:51:46.612Z,97859.47
2022-11-24T03:54:16.554Z,97864.69
2022-11-24T03:56:43.195Z,97864.69
2022-11-24T03:59:09.809Z,97863.81
2022-11-24T04:01:36.498Z,97861.19
2022-11-24T04:04:03.200Z,97866.44
2022-11-24T04:06:29.799Z,97867.31
2022-11-24T04:08:56.441Z,97878.72
2022-11-24T04:11:41.658Z,97875.22
2022-11-24T04:14:13.311Z,97880.47
2022-11-24T04:16:40.072Z,97878.75
2022-11-24T04:19:06.669Z,97876.13
2022-11-24T04:21:34.878Z,97880.50
2022-11-24T04:24:01.550Z,97885.75
2022-11-24T04:26:28.183Z,97891.00
2022-11-24T04:28:54.768Z,97895.41
2022-11-24T04:31:28.959Z,97890.16
2022-11-24T04:33:55.613Z,97893.69
2022-11-24T04:36:22.147Z,97905.09
2022-11-24T04:39:19.855Z,97910.34
2022-11-24T04:41:37.309Z,97919.09
2022-11-24T04:44:05.827Z,97919.94
2022-11-24T04:46:32.480Z,97919.94
2022-11-24T04:48:59.052Z,97926.09
2022-11-24T04:51:25.612Z,97930.47
2022-11-24T04:53:52.230Z,97927.84
2022-11-24T04:56:18.810Z,97932.22
2022-11-24T04:58:48.505Z,97929.63
2022-11-24T05:01:15.432Z,97933.09
2022-11-24T05:03:41.950Z,97925.22
2022-11-24T05:06:16.146Z,97929.59
2022-11-24T05:08:42.601Z,97932.22
2022-11-24T05:11:09.166Z,97935.75
2022-11-24T05:13:35.649Z,97932.22
2022-11-24T05:16:02.264Z,97938.34
2022-11-24T05:18:28.927Z,97944.50
2022-11-24T05:20:55.749Z,97948.91
2022-11-24T05:23:22.239Z,97947.16
2022-11-24T05:25:48.776Z,97956.78
2022-11-24T05:28:15.620Z,97959.41
2022-11-24T05:30:42.451Z,97965.56
2022-11-24T05:33:22.971Z,97976.06
2022-11-24T05:35:50.103Z,97975.22
2022-11-24T05:38:18.069Z,97969.94
2022-11-24T05:40:44.888Z,97972.56
2022-11-24T05:43:16.505Z,97974.34
2022-11-24T05:45:47.421Z,97982.19
2022-11-24T05:48:15.486Z,97976.06
2022-11-24T05:50:42.302Z,97976.06
2022-11-24T05:53:11.840Z,97979.56
2022-11-24T05:55:40.028Z,97978.69
2022-11-24T05:58:08.528Z,97984.84
2022-11-24T06:00:36.791Z,97980.47
2022-11-24T06:03:03.999Z,97987.44
2022-11-24T06:05:30.740Z,97987.47
2022-11-24T06:07:59.434Z,97988.34
2022-11-24T06:10:26.057Z,97993.59
2022-11-24T06:12:52.721Z,97993.59
2022-11-24T06:15:19.499Z,97994.44
2022-11-24T06:17:54.636Z,97997.09
2022-11-24T06:20:22.129Z,97992.69
2022-11-24T06:22:48.655Z,97991.84
2022-11-24T06:25:16.265Z,97998.84
2022-11-24T06:27:43.512Z,98001.47
2022-11-24T06:30:10.899Z,98008.44
2022-11-24T06:32:37.474Z,98025.94
2022-11-24T06:35:04.803Z,98029.47
2022-11-24T06:37:31.467Z,98025.06
2022-11-24T06:40:00.206Z,98027.69
2022-11-24T06:42:26.689Z,98033.84
2022-11-24T06:44:55.950Z,98037.31
2022-11-24T06:47:22.456Z,98030.31
2022-11-24T06:49:48.979Z,98027.69
2022-11-24T06:52:15.466Z,98031.19
2022-11-24T06:54:45.264Z,98031.19
2022-11-24T06:57:14.753Z,98030.31
2022-11-24T06:59:41.305Z,98038.22
2022-11-24T07:02:13.094Z,98040.81
2022-11-24T07:04:39.619Z,98044.31
2022-11-24T07:07:06.081Z,98047.84
2022-11-24T07:09:32.587Z,98050.50
2022-11-24T07:11:59.047Z,98042.63
2022-11-24T07:14:25.548Z,98045.28
2022-11-24T07:16:52.546Z,98037.38
2022-11-24T07:19:25.711Z,98043.53
2022-11-24T07:21:54.858Z,98043.53
2022-11-24T07:24:21.335Z,98059.31
2022-11-24T07:26:47.827Z,98057.56
2022-11-24T07:29:14.326Z,98056.69
2022-11-24T07:31:40.913Z,98054.94
2022-11-24T07:34:07.411Z,98061.03
2022-11-24T07:36:34.084Z,98073.31
2022-11-24T07:39:00.569Z,98075.94
2022-11-24T07:41:27.055Z,98073.34
2022-11-24T07:43:56.759Z,98081.22
2022-11-24T07:46:23.416Z,98072.47
2022-11-24T07:48:49.965Z,98076.84
2022-11-24T07:51:16.519Z,98071.59
2022-11-24T07:53:43.483Z,98083.88
2022-11-24T07:56:10.612Z,98086.50
2022-11-24T07:58:40.721Z,98089.16
2022-11-24T08:01:16.032Z,98104.06
2022-11-24T08:03:43.383Z,98105.81
2022-11-24T08:06:31.773Z,98104.03
2022-11-24T08:08:58.524Z,98096.16
2022-11-24T08:11:25.286Z,98101.44
2022-11-24T08:13:54.551Z,98104.91
2022-11-24T08:16:21.247Z,98111.94
2022-11-24T08:18:52.827Z,98103.16
2022-11-24T08:21:20.377Z,98110.19
2022-11-24T08:23:47.214Z,98118.06
2022-11-24T08:26:17.749Z,98125.09
2022-11-24T08:28:45.628Z,98118.94
2022-11-24T08:31:15.163Z,98122.44
2022-11-24T08:33:45.472Z,98119.81
2022-11-24T08:36:14.818Z,98120.69
2022-11-24T08:38:41.849Z,98116.25
2022-11-24T08:41:15.273Z,98121.47
2022-11-24T08:43:42.255Z,98123.22
2022-11-24T08:46:11.058Z,98122.31
2022-11-24T08:48:38.089Z,98124.94
2022-11-24T08:51:15.706Z,98128.50
2022-11-24T08:53:43.423Z,98124.03
2022-11-24T08:56:11.288Z,98132.84
2022-11-24T08:58:38.615Z,98133.69
2022-11-24T09:01:14.486Z,98127.50
2022-11-24T09:03:46.610Z,98129.25
2022-11-24T09:06:15.582Z,98142.38
2022-11-24T09:08:42.697Z,98129.19
2022-11-24T09:11:12.355Z,98135.28
2022-11-24T09:13:39.656Z,98138.75
2022-11-24T09:16:15.470Z,98145.72
2022-11-24T09:18:45.145Z,98164.22
2022-11-24T09:21:14.758Z,98160.72
2022-11-24T09:23:41.742Z,98166.06
2022-11-24T09:26:23.405Z,98163.47
2022-11-24T09:28:50.262Z,98168.75
2022-11-24T09:31:21.127Z,98175.78
2022-11-24T09:33:49.072Z,98172.22
2022-11-24T09:36:15.709Z,98166.88
2022-11-24T09:38:42.544Z,98171.13
2022-11-24T09:41:14.979Z,98163.94
2022-11-24T09:43:46.327Z,98169.16
2022-11-24T09:46:43.672Z,98168.22
2022-11-24T09:49:17.784Z,98174.31
2022-11-24T09:51:51.393Z,98166.25
2022-11-24T09:54:26.448Z,98176.72
2022-11-24T09:56:53.038Z,98183.81
2022-11-24T09:59:25.155Z,98185.63
2022-11-24T10:01:52.428Z,98189.19
2022-11-24T10:04:32.041Z,98193.63
2022-11-24T10:07:22.993Z,98191.03
2022-11-24T10:09:58.814Z,98194.53
2022-11-24T10:12:28.120Z,98199.84
2022-11-24T10:15:04.677Z,98207.94
2022-11-24T10:17:56.099Z,98207.13
2022-11-24T10:20:48.471Z,98210.69
2022-11-24T10:23:41.857Z,98206.34
2022-11-24T10:26:19.014Z,98216.97
2022-11-24T10:28:53.335Z,98214.34
2022-11-24T10:31:41.825Z,98210.00
2022-11-24T10:34:16.811Z,98203.84
2022-11-24T10:36:58.338Z,98213.53
2022-11-24T10:40:26.979Z,98205.63
2022-11-24T10:42:58.197Z,98210.88
2022-11-24T10:45:27.435Z,98217.03
2022-11-24T10:47:53.935Z,98208.22
2022-11-24T10:50:27.175Z,98209.09
2022-11-24T10:53:13.877Z,98206.44
2022-11-24T10:55:58.266Z,98209.09
2022-11-24T10:58:38.924Z,98210.84
2022-11-24T11:01:32.014Z,98213.50
2022-11-24T11:04:01.475Z,98213.50
2022-11-24T11:06:30.221Z,98216.16
2022-11-24T11:09:09.278Z,98217.84
2022-11-24T11:11:39.189Z,98214.31
2022-11-24T11:14:12.866Z,98216.03
2022-11-24T11:16:42.164Z,98218.69
2022-11-24T11:20:01.707Z,98214.28
2022-11-24T11:22:37.408Z,98223.09
2022-11-24T11:25:07.285Z,98226.63
2022-11-24T11:27:36.951Z,98224.00
2022-11-24T11:36:15.582Z,98235.41
2022-11-24T11:38:43.577Z,98238.91
2022-11-24T11:41:21.680Z,98238.94
2022-11-24T11:43:56.252Z,98236.31
2022-11-24T11:46:26.504Z,98234.63
2022-11-24T11:48:53.119Z,98230.28
2022-11-24T11:51:29.856Z,98238.13
2022-11-24T11:54:26.941Z,98239.91
2022-11-24T11:57:47.761Z,98237.28
2022-11-24T12:00:21.913Z,98256.63
2022-11-24T12:02:53.095Z,98260.09
2022-11-24T12:05:38.946Z,98262.72
2022-11-24T12:08:21.026Z,98269.75
2022-11-24T12:10:48.012Z,98262.75
2022-11-24T12:13:41.976Z,98266.28
2022-11-24T12:16:34.464Z,98270.72
2022-11-24T12:19:13.039Z,98277.75
2022-11-24T12:22:05.667Z,98268.06
2022-11-24T12:24:45.113Z,98272.47
2022-11-24T12:27:50.155Z,98277.72
2022-11-24T12:30:18.855Z,98290.03
2022-11-24T12:33:05.507Z,98292.66
2022-11-24T12:35:58.832Z,98291.78
2022-11-24T12:38:43.728Z,98298.72
2022-11-24T12:41:40.298Z,98303.09
2022-11-24T12:44:27.620Z,98297.84
2022-11-24T12:47:10.961Z,98299.63
2022-11-24T12:50:14.759Z,98309.38
2022-11-24T12:52:58.500Z,98302.34
2022-11-24T12:55:27.584Z,98303.22
2022-11-24T12:58:09.350Z,98306.72
2022-11-24T13:01:17.048Z,98311.13
2022-11-24T13:04:11.589Z,98318.19
2022-11-24T13:06:51.531Z,98320.78
2022-11-24T13:09:18.055Z,98319.00
2022-11-24T13:11:47.039Z,98328.69
2022-11-24T13:14:33.370Z,98327.84
2022-11-24T13:17:31.045Z,98329.59
2022-11-24T13:20:20.360Z,98331.38
2022-11-24T13:23:20.455Z,98327.84
2022-11-24T13:26:31.080Z,98329.59
2022-11-24T13:29:13.472Z,98336.59
2022-11-24T13:31:51.280Z,98338.38
2022-11-24T13:34:44.931Z,98338.38
2022-11-24T13:37:26.467Z,98348.91
2022-11-24T13:40:01.165Z,98348.03
2022-11-24T13:42:41.768Z,98342.78
2022-11-24T13:45:40.502Z,98344.53
2022-11-24T13:48:19.882Z,98349.81
2022-11-24T13:50:58.486Z,98349.81
2022-11-24T13:53:33.388Z,98355.94
2022-11-24T13:56:03.370Z,98367.38
2022-11-24T13:58:37.513Z,98370.88
2022-11-24T14:01:11.430Z,98363.88
2022-11-24T14:04:28.727Z,98367.41
2022-11-24T14:07:07.009Z,98363.00
2022-11-24T14:09:52.594Z,98371.78
2022-11-24T14:12:27.870Z,98372.66
2022-11-24T14:14:57.138Z,98376.16
2022-11-24T14:17:27.583Z,98379.72
2022-11-24T14:19:56.445Z,98383.19
2022-11-24T14:22:39.335Z,98385.84
2022-11-24T14:25:06.447Z,98392.91
2022-11-24T14:27:37.434Z,98384.09
2022-11-24T14:30:25.015Z,98391.13
2022-11-24T14:33:01.856Z,98394.63
2022-11-24T14:35:33.841Z,98401.63
2022-11-24T14:38:04.805Z,98393.72
2022-11-24T14:40:54.376Z,98396.34
2022-11-24T14:43:22.684Z,98395.47
2022-11-24T14:45:57.251Z,98395.47
2022-11-24T14:48:29.184Z,98401.59
2022-11-24T14:51:05.348Z,98411.25
2022-11-24T14:53:32.379Z,98413.88
2022-11-24T14:56:31.719Z,98413.84
2022-11-24T14:58:59.179Z,98423.50
2022-11-24T15:01:28.669Z,98432.28
2022-11-24T15:04:39.011Z,98437.53
2022-11-24T15:07:13.383Z,98434.88
2022-11-24T15:09:48.973Z,98438.38
2022-11-24T15:12:34.727Z,98433.13
2022-11-24T15:15:06.379Z,98441.88
2022-11-24T15:17:34.106Z,98444.53
2022-11-24T15:20:03.435Z,98443.66
2022-11-24T15:22:44.745Z,98448.91
2022-11-24T15:25:32.459Z,98448.91
2022-11-24T15:27:59.957Z,98454.19
2022-11-24T15:30:27.161Z,98453.28
2022-11-24T15:32:58.324Z,98449.78
2022-11-24T15:35:29.928Z,98448.03
2022-11-24T15:37:57.680Z,98448.91
2022-11-24T15:40:24.806Z,98445.41
2022-11-24T15:42:55.857Z,98446.28
2022-11-24T15:45:25.034Z,98444.53
2022-11-24T15:47:51.923Z,98439.25
2022-11-24T15:50:19.441Z,98446.28
2022-11-24T15:52:47.428Z,98444.47
2022-11-24T15:55:22.015Z,98436.56
2022-11-24T15:57:49.225Z,98444.41
2022-11-24T16:00:24.815Z,98454.88
2022-11-24T16:02:51.323Z,98447.81
2022-11-24T16:05:18.024Z,98456.56
2022-11-24T16:07:45.023Z,98463.56
2022-11-24T16:10:31.265Z,98460.88
2022-11-24T16:12:57.831Z,98468.75
2022-11-24T16:15:24.692Z,98473.94
2022-11-24T16:17:51.273Z,98475.63
2022-11-24T16:20:17.875Z,98473.94
2022-11-24T16:22:44.741Z,98471.38
2022-11-24T16:25:14.521Z,98462.59
2022-11-24T16:27:41.190Z,98472.22
2022-11-24T16:30:10.905Z,98473.09
2022-11-24T16:32:37.418Z,98477.50
2022-11-24T16:35:04.507Z,98475.72
2022-11-24T16:37:34.608Z,98481.03
2022-11-24T16:40:02.494Z,98481.84
2022-11-24T16:42:29.412Z,98487.06
2022-11-24T16:44:55.946Z,98488.81
2022-11-24T16:47:25.702Z,98500.25
2022-11-24T16:49:52.247Z,98505.53
2022-11-24T16:52:18.994Z,98502.06
2022-11-24T16:54:47.382Z,98505.59
2022-11-24T16:57:15.313Z,98500.38
2022-11-24T16:59:51.701Z,98509.19
2022-11-24T17:02:18.928Z,98510.06
2022-11-24T17:04:45.584Z,98517.16
2022-11-24T17:07:13.817Z,98517.16
2022-11-24T17:09:40.933Z,98511.03
2022-11-24T17:12:07.717Z,98518.03
2022-11-24T17:14:34.496Z,98508.38
2022-11-24T17:17:01.311Z,98511.91
2022-11-24T17:19:28.522Z,98512.75
2022-11-24T17:21:55.032Z,98513.63
2022-11-24T17:24:21.586Z,98519.78
2022-11-24T17:26:50.897Z,98511.91
2022-11-24T17:29:19.813Z,98527.69
2022-11-24T17:31:46.406Z,98517.16
2022-11-24T17:34:13.009Z,98531.22
2022-11-24T17:36:45.933Z,98522.47
2022-11-24T17:39:12.450Z,98521.59
2022-11-24T17:41:39.025Z,98520.69
2022-11-24T17:44:10.637Z,98535.59
2022-11-24T17:46:37.604Z,98528.56
2022-11-24T17:49:04.154Z,98535.59
2022-11-24T17:51:30.754Z,98539.09
2022-11-24T17:54:05.971Z,98537.38
2022-11-24T17:56:47.055Z,98529.50
2022-11-24T17:59:13.897Z,98533.88
2022-11-24T18:01:40.502Z,98533.88
2022-11-24T18:04:07.011Z,98540.03
2022-11-24T18:06:34.180Z,98542.66
2022-11-24T18:09:00.709Z,98541.78
2022-11-24T18:11:31.702Z,98549.69
2022-11-24T18:14:02.269Z,98540.91
2022-11-24T18:16:34.166Z,98548.81
2022-11-24T18:19:09.405Z,98547.94
2022-11-24T18:21:41.283Z,98549.69
2022-11-24T18:24:09.762Z,98552.34
2022-11-24T18:26:37.639Z,98555.00
2022-11-24T18:29:04.542Z,98556.78
2022-11-24T18:31:32.243Z,98554.16
2022-11-24T18:33:59.325Z,98554.16
2022-11-24T18:36:29.905Z,98548.03
2022-11-24T18:39:00.395Z,98555.91
2022-11-24T18:41:27.135Z,98551.50
2022-11-24T18:43:53.942Z,98559.34
2022-11-24T18:46:20.506Z,98554.06
2022-11-24T18:48:47.260Z,98546.16
2022-11-24T18:51:17.658Z,98556.69
2022-11-24T18:53:46.065Z,98554.88
2022-11-24T18:56:15.664Z,98553.13
2022-11-24T18:58:43.018Z,98548.78
2022-11-24T19:01:15.634Z,98554.94
2022-11-24T19:03:51.473Z,98558.47
2022-11-24T19:06:28.666Z,98549.69
2022-11-24T19:08:55.957Z,98555.81
2022-11-24T19:11:33.862Z,98563.72
2022-11-24T19:14:01.724Z,98556.66
2022-11-24T19:16:28.258Z,98564.59
2022-11-24T19:19:02.486Z,98561.03
2022-11-24T19:21:31.603Z,98562.75
2022-11-24T19:24:04.163Z,98568.84
2022-11-24T19:26:31.824Z,98572.34
2022-11-24T19:29:03.856Z,98567.94
2022-11-24T19:31:30.361Z,98577.59
2022-11-24T19:33:58.645Z,98578.47
2022-11-24T19:36:26.272Z,98581.06
2022-11-24T19:38:57.255Z,98581.91
2022-11-24T19:41:27.100Z,98583.69
2022-11-24T19:43:54.566Z,98575.72
2022-11-24T19:46:26.197Z,98575.75
2022-11-24T19:48:59.617Z,98582.75
2022-11-24T19:51:30.841Z,98583.63
2022-11-24T19:53:57.593Z,98588.09
2022-11-24T19:56:27.047Z,98583.69
2022-11-24T19:58:54.543Z,98587.19
2022-11-24T20:01:24.768Z,98583.72
2022-11-24T20:04:03.692Z,98587.22
2022-11-24T20:06:36.808Z,98581.09
2022-11-24T20:09:06.181Z,98588.13
2022-11-24T20:11:32.747Z,98586.38
2022-11-24T20:14:03.102Z,98584.59
2022-11-24T20:16:31.638Z,98583.72
2022-11-24T20:19:05.771Z,98586.34
2022-11-24T20:21:33.146Z,98592.41
2022-11-24T20:24:03.804Z,98600.28
2022-11-24T20:26:40.108Z,98598.53
2022-11-24T20:29:09.824Z,98597.66
2022-11-24T20:31:38.398Z,98594.13
2022-11-24T20:34:07.244Z,98595.00
2022-11-24T20:36:35.415Z,98595.91
2022-11-24T20:39:05.597Z,98590.66
2022-11-24T20:41:34.750Z,98597.69
2022-11-24T20:44:08.133Z,98604.66
2022-11-24T20:46:40.345Z,98594.13
2022-11-24T20:49:08.749Z,98596.75
2022-11-24T20:51:39.023Z,98596.69
2022-11-24T20:54:10.939Z,98604.56
2022-11-24T20:56:40.890Z,98603.66
2022-11-24T20:59:09.094Z,98602.78
2022-11-24T21:01:38.657Z,98598.38
2022-11-24T21:04:07.953Z,98609.72
2022-11-24T21:06:35.733Z,98604.41
2022-11-24T21:09:04.183Z,98608.72
2022-11-24T21:11:31.674Z,98610.38
2022-11-24T21:13:58.644Z,98617.31
2022-11-24T21:16:30.140Z,98615.34
2022-11-24T21:19:12.579Z,98618.84
2022-11-24T21:21:40.115Z,98617.97
2022-11-24T21:24:12.547Z,98620.56
2022-11-24T21:26:40.276Z,98622.31
2022-11-24T21:29:07.420Z,98629.31
2022-11-24T21:31:38.299Z,98620.41
2022-11-24T21:34:06.146Z,98633.59
2022-11-24T21:36:34.908Z,98630.94
2022-11-24T21:39:02.683Z,98630.09
2022-11-24T21:41:32.137Z,98630.09
2022-11-24T21:43:59.158Z,98632.63
2022-11-24T21:46:28.181Z,98633.59
2022-11-24T21:48:54.717Z,98635.41
2022-11-24T21:51:21.269Z,98640.59
2022-11-24T21:53:48.075Z,98639.00
2022-11-24T21:56:17.590Z,98639.25
2022-11-24T21:58:48.108Z,98632.34
2022-11-24T22:01:17.663Z,98636.75
2022-11-24T22:03:45.716Z,98637.66
2022-11-24T22:06:12.959Z,98641.97
2022-11-24T22:08:39.512Z,98649.75
2022-11-24T22:11:11.321Z,98647.22
2022-11-24T22:13:37.829Z,98654.28
2022-11-24T22:16:10.069Z,98647.31
2022-11-24T22:18:38.847Z,98650.03
2022-11-24T22:21:07.396Z,98644.78
2022-11-24T22:23:35.924Z,98649.19
2022-11-24T22:26:07.536Z,98647.47
2022-11-24T22:28:37.332Z,98654.50
2022-11-24T22:31:18.201Z,98649.28
2022-11-24T22:33:45.331Z,98653.63
2022-11-24T22:36:13.891Z,98653.63
2022-11-24T22:38:41.112Z,98657.03
2022-11-24T22:41:16.420Z,98646.41
2022-11-24T22:43:44.490Z,98653.50
2022-11-24T22:46:25.360Z,98651.66
2022-11-24T22:48:53.264Z,98659.44
2022-11-24T22:51:22.343Z,98656.81
2022-11-24T22:53:58.292Z,98655.00
2022-11-24T22:56:28.195Z,98654.88
2022-11-24T22:59:02.005Z,98654.72
2022-11-24T23:01:29.845Z,98649.44
2022-11-24T23:03:56.994Z,98649.44
2022-11-24T23:06:26.189Z,98652.00
2022-11-24T23:08:52.968Z,98645.84
2022-11-24T23:11:27.335Z,98654.53
2022-11-24T23:14:00.470Z,98654.41
2022-11-24T23:16:34.279Z,98655.22
2022-11-24T23:19:03.880Z,98656.03
2022-11-24T23:21:32.409Z,98652.53
2022-11-24T23:24:00.994Z,98649.88
2022-11-24T23:26:39.106Z,98649.88
2022-11-24T23:29:07.185Z,98653.38
2022-11-24T23:31:33.746Z,98649.06
2022-11-24T23:34:02.927Z,98657.84
2022-11-24T23:36:30.227Z,98660.41
2022-11-24T23:39:00.832Z,98650.78
2022-11-24T23:41:30.069Z,98650.78
2022-11-24T23:43:56.558Z,98654.25
2022-11-24T23:46:24.923Z,98647.25
2022-11-24T23:48:53.330Z,98638.66
2022-11-24T23:51:25.135Z,98642.22
2022-11-24T23:53:52.289Z,98642.22
2022-11-24T23:56:39.174Z,98643.97
2022-11-24T23:59:05.671Z,98630.81
